sensor_id;sensor_type;location;lat;lon;timestamp;P1;durP1;ratioP1;P2;durP2;ratioP2
6671;SDS011;3372;48.690;12.362;2022-09-06T00:00:14;13.67;;;12.27;;
6671;SDS011;3372;48.690;12.362;2022-09-06T00:02:42;14.60;;;13.10;;
6671;SDS011;3372;48.690;12.362;2022-09-06T00:05:08;16.40;;;14.57;;
6671;SDS011;3372;48.690;12.362;2022-09-06T00:07:35;15.03;;;13.63;;
6671;SDS011;3372;48.690;12.362;2022-09-06T00:10:01;13.10;;;11.80;;
6671;SDS011;3372;48.690;12.362;2022-09-06T00:12:27;13.97;;;12.67;;
6671;SDS011;3372;48.690;12.362;2022-09-06T00:14:53;15.53;;;13.93;;
6671;SDS011;3372;48.690;12.362;2022-09-06T00:17:18;15.43;;;13.83;;
6671;SDS011;3372;48.690;12.362;2022-09-06T00:19:44;13.47;;;12.10;;
6671;SDS011;3372;48.690;12.362;2022-09-06T00:22:10;14.70;;;13.20;;
6671;SDS011;3372;48.690;12.362;2022-09-06T00:24:35;13.90;;;12.50;;
6671;SDS011;3372;48.690;12.362;2022-09-06T00:27:01;15.90;;;13.83;;
6671;SDS011;3372;48.690;12.362;2022-09-06T00:29:28;14.47;;;12.97;;
6671;SDS011;3372;48.690;12.362;2022-09-06T00:31:54;14.93;;;13.40;;
6671;SDS011;3372;48.690;12.362;2022-09-06T00:34:19;15.80;;;14.10;;
6671;SDS011;3372;48.690;12.362;2022-09-06T00:36:45;16.80;;;15.10;;
6671;SDS011;3372;48.690;12.362;2022-09-06T00:39:11;18.90;;;16.90;;
6671;SDS011;3372;48.690;12.362;2022-09-06T00:41:36;16.90;;;15.10;;
6671;SDS011;3372;48.690;12.362;2022-09-06T00:44:02;19.23;;;17.10;;
6671;SDS011;3372;48.690;12.362;2022-09-06T00:46:28;17.10;;;15.30;;
6671;SDS011;3372;48.690;12.362;2022-09-06T00:48:56;19.00;;;16.57;;
6671;SDS011;3372;48.690;12.362;2022-09-06T00:51:49;17.53;;;15.67;;
6671;SDS011;3372;48.690;12.362;2022-09-06T00:54:20;16.17;;;14.47;;
6671;SDS011;3372;48.690;12.362;2022-09-06T00:56:46;16.97;;;15.27;;
6671;SDS011;3372;48.690;12.362;2022-09-06T00:59:12;17.20;;;15.53;;
6671;SDS011;3372;48.690;12.362;2022-09-06T01:01:39;17.77;;;15.97;;
6671;SDS011;3372;48.690;12.362;2022-09-06T01:04:05;15.50;;;13.90;;
6671;SDS011;3372;48.690;12.362;2022-09-06T01:06:36;16.47;;;14.73;;
6671;SDS011;3372;48.690;12.362;2022-09-06T01:09:27;15.80;;;14.30;;
6671;SDS011;3372;48.690;12.362;2022-09-06T01:12:25;15.27;;;13.70;;
6671;SDS011;3372;48.690;12.362;2022-09-06T01:15:08;15.23;;;13.73;;
6671;SDS011;3372;48.690;12.362;2022-09-06T01:29:25;14.87;;;12.80;;
6671;SDS011;3372;48.690;12.362;2022-09-06T01:31:54;16.03;;;13.73;;
6671;SDS011;3372;48.690;12.362;2022-09-06T01:34:34;15.97;;;14.47;;
6671;SDS011;3372;48.690;12.362;2022-09-06T01:37:11;16.47;;;14.77;;
6671;SDS011;3372;48.690;12.362;2022-09-06T01:39:40;15.33;;;13.80;;
6671;SDS011;3372;48.690;12.362;2022-09-06T01:44:44;16.77;;;14.53;;
6671;SDS011;3372;48.690;12.362;2022-09-06T02:01:01;15.80;;;13.83;;
6671;SDS011;3372;48.690;12.362;2022-09-06T02:03:40;16.50;;;14.33;;
6671;SDS011;3372;48.690;12.362;2022-09-06T02:06:25;15.17;;;13.63;;
6671;SDS011;3372;48.690;12.362;2022-09-06T02:09:05;15.40;;;13.63;;
6671;SDS011;3372;48.690;12.362;2022-09-06T02:11:46;15.83;;;14.20;;
6671;SDS011;3372;48.690;12.362;2022-09-06T02:14:15;16.03;;;14.33;;
6671;SDS011;3372;48.690;12.362;2022-09-06T02:16:44;17.10;;;15.30;;
6671;SDS011;3372;48.690;12.362;2022-09-06T02:21:47;16.63;;;14.93;;
6671;SDS011;3372;48.690;12.362;2022-09-06T02:24:19;14.27;;;12.77;;
6671;SDS011;3372;48.690;12.362;2022-09-06T02:26:49;15.83;;;14.23;;
6671;SDS011;3372;48.690;12.362;2022-09-06T02:29:15;16.47;;;14.33;;
6671;SDS011;3372;48.690;12.362;2022-09-06T02:31:50;19.10;;;15.20;;
6671;SDS011;3372;48.690;12.362;2022-09-06T02:34:20;16.60;;;14.90;;
6671;SDS011;3372;48.690;12.362;2022-09-06T02:36:46;16.40;;;14.40;;
6671;SDS011;3372;48.690;12.362;2022-09-06T02:39:12;15.97;;;14.40;;
6671;SDS011;3372;48.690;12.362;2022-09-06T02:41:39;15.83;;;14.13;;
6671;SDS011;3372;48.690;12.362;2022-09-06T02:44:06;16.17;;;14.57;;
6671;SDS011;3372;48.690;12.362;2022-09-06T02:46:31;14.50;;;13.03;;
6671;SDS011;3372;48.690;12.362;2022-09-06T02:48:57;15.10;;;13.57;;
6671;SDS011;3372;48.690;12.362;2022-09-06T02:51:22;15.83;;;14.23;;
6671;SDS011;3372;48.690;12.362;2022-09-06T02:53:48;15.53;;;13.93;;
6671;SDS011;3372;48.690;12.362;2022-09-06T02:56:14;16.47;;;14.23;;
6671;SDS011;3372;48.690;12.362;2022-09-06T02:58:39;16.70;;;14.90;;
6671;SDS011;3372;48.690;12.362;2022-09-06T03:01:05;19.50;;;15.70;;
6671;SDS011;3372;48.690;12.362;2022-09-06T03:03:30;16.23;;;14.60;;
6671;SDS011;3372;48.690;12.362;2022-09-06T03:05:56;15.63;;;14.03;;
6671;SDS011;3372;48.690;12.362;2022-09-06T03:08:22;16.47;;;14.77;;
6671;SDS011;3372;48.690;12.362;2022-09-06T03:10:57;17.77;;;15.97;;
6671;SDS011;3372;48.690;12.362;2022-09-06T03:13:23;14.93;;;13.53;;
6671;SDS011;3372;48.690;12.362;2022-09-06T03:15:52;16.60;;;14.80;;
6671;SDS011;3372;48.690;12.362;2022-09-06T03:18:20;17.97;;;15.80;;
6671;SDS011;3372;48.690;12.362;2022-09-06T03:20:50;16.50;;;14.80;;
6671;SDS011;3372;48.690;12.362;2022-09-06T03:23:17;18.40;;;14.97;;
6671;SDS011;3372;48.690;12.362;2022-09-06T03:25:44;15.60;;;14.00;;
6671;SDS011;3372;48.690;12.362;2022-09-06T03:28:09;16.50;;;14.80;;
6671;SDS011;3372;48.690;12.362;2022-09-06T03:30:36;14.27;;;12.87;;
6671;SDS011;3372;48.690;12.362;2022-09-06T03:33:02;16.70;;;14.90;;
6671;SDS011;3372;48.690;12.362;2022-09-06T03:35:28;15.50;;;13.77;;
6671;SDS011;3372;48.690;12.362;2022-09-06T03:37:53;16.87;;;15.07;;
6671;SDS011;3372;48.690;12.362;2022-09-06T03:40:19;18.20;;;15.07;;
6671;SDS011;3372;48.690;12.362;2022-09-06T03:42:44;16.33;;;14.70;;
6671;SDS011;3372;48.690;12.362;2022-09-06T03:45:10;17.27;;;15.47;;
6671;SDS011;3372;48.690;12.362;2022-09-06T03:47:36;17.27;;;14.67;;
6671;SDS011;3372;48.690;12.362;2022-09-06T03:50:02;18.57;;;16.00;;
6671;SDS011;3372;48.690;12.362;2022-09-06T03:52:28;17.00;;;15.20;;
6671;SDS011;3372;48.690;12.362;2022-09-06T03:54:54;16.43;;;14.67;;
6671;SDS011;3372;48.690;12.362;2022-09-06T03:57:19;17.70;;;15.20;;
6671;SDS011;3372;48.690;12.362;2022-09-06T03:59:45;16.60;;;14.90;;
6671;SDS011;3372;48.690;12.362;2022-09-06T04:02:10;16.33;;;14.63;;
6671;SDS011;3372;48.690;12.362;2022-09-06T04:04:36;15.80;;;14.20;;
6671;SDS011;3372;48.690;12.362;2022-09-06T04:07:01;16.67;;;14.97;;
6671;SDS011;3372;48.690;12.362;2022-09-06T04:09:27;16.50;;;14.80;;
6671;SDS011;3372;48.690;12.362;2022-09-06T04:11:53;16.83;;;15.00;;
6671;SDS011;3372;48.690;12.362;2022-09-06T04:14:19;16.27;;;14.57;;
6671;SDS011;3372;48.690;12.362;2022-09-06T04:16:45;15.53;;;13.97;;
6671;SDS011;3372;48.690;12.362;2022-09-06T04:19:10;16.67;;;14.97;;
6671;SDS011;3372;48.690;12.362;2022-09-06T04:21:36;16.50;;;14.80;;
6671;SDS011;3372;48.690;12.362;2022-09-06T04:24:02;18.20;;;16.07;;
6671;SDS011;3372;48.690;12.362;2022-09-06T04:26:28;15.93;;;14.20;;
6671;SDS011;3372;48.690;12.362;2022-09-06T04:28:54;20.43;;;15.40;;
6671;SDS011;3372;48.690;12.362;2022-09-06T04:31:19;16.50;;;14.80;;
6671;SDS011;3372;48.690;12.362;2022-09-06T04:33:45;16.13;;;14.30;;
6671;SDS011;3372;48.690;12.362;2022-09-06T04:36:10;18.60;;;16.23;;
6671;SDS011;3372;48.690;12.362;2022-09-06T04:38:37;15.83;;;14.20;;
6671;SDS011;3372;48.690;12.362;2022-09-06T04:41:04;17.03;;;15.10;;
6671;SDS011;3372;48.690;12.362;2022-09-06T04:43:31;16.37;;;14.60;;
6671;SDS011;3372;48.690;12.362;2022-09-06T04:46:09;15.67;;;13.97;;
6671;SDS011;3372;48.690;12.362;2022-09-06T04:48:35;15.87;;;14.20;;
6671;SDS011;3372;48.690;12.362;2022-09-06T04:51:01;15.57;;;13.90;;
6671;SDS011;3372;48.690;12.362;2022-09-06T04:53:26;15.23;;;13.23;;
6671;SDS011;3372;48.690;12.362;2022-09-06T04:55:52;16.10;;;14.43;;
6671;SDS011;3372;48.690;12.362;2022-09-06T04:58:20;14.87;;;13.03;;
6671;SDS011;3372;48.690;12.362;2022-09-06T05:00:46;17.50;;;14.83;;
6671;SDS011;3372;48.690;12.362;2022-09-06T05:03:11;16.63;;;14.73;;
6671;SDS011;3372;48.690;12.362;2022-09-06T05:05:37;15.50;;;13.90;;
6671;SDS011;3372;48.690;12.362;2022-09-06T05:08:02;16.27;;;14.57;;
6671;SDS011;3372;48.690;12.362;2022-09-06T05:10:28;17.57;;;14.50;;
6671;SDS011;3372;48.690;12.362;2022-09-06T05:12:54;15.00;;;13.40;;
6671;SDS011;3372;48.690;12.362;2022-09-06T05:15:20;16.17;;;13.97;;
6671;SDS011;3372;48.690;12.362;2022-09-06T05:17:46;14.70;;;13.20;;
6671;SDS011;3372;48.690;12.362;2022-09-06T05:20:12;16.70;;;14.97;;
6671;SDS011;3372;48.690;12.362;2022-09-06T05:22:38;18.70;;;15.73;;
6671;SDS011;3372;48.690;12.362;2022-09-06T05:25:04;16.80;;;15.00;;
6671;SDS011;3372;48.690;12.362;2022-09-06T05:27:31;16.20;;;14.50;;
6671;SDS011;3372;48.690;12.362;2022-09-06T05:29:56;16.40;;;13.13;;
6671;SDS011;3372;48.690;12.362;2022-09-06T05:32:22;15.83;;;14.13;;
6671;SDS011;3372;48.690;12.362;2022-09-06T05:34:48;15.77;;;14.27;;
6671;SDS011;3372;48.690;12.362;2022-09-06T05:37:13;17.10;;;14.50;;
6671;SDS011;3372;48.690;12.362;2022-09-06T05:39:39;15.83;;;14.30;;
6671;SDS011;3372;48.690;12.362;2022-09-06T05:42:04;16.73;;;14.97;;
6671;SDS011;3372;48.690;12.362;2022-09-06T05:44:34;19.33;;;15.30;;
6671;SDS011;3372;48.690;12.362;2022-09-06T05:47:00;19.67;;;16.23;;
6671;SDS011;3372;48.690;12.362;2022-09-06T05:49:29;17.67;;;15.20;;
6671;SDS011;3372;48.690;12.362;2022-09-06T05:51:56;17.27;;;15.47;;
6671;SDS011;3372;48.690;12.362;2022-09-06T05:54:21;15.80;;;14.10;;
6671;SDS011;3372;48.690;12.362;2022-09-06T05:56:47;15.20;;;13.63;;
6671;SDS011;3372;48.690;12.362;2022-09-06T05:59:13;16.37;;;14.50;;
6671;SDS011;3372;48.690;12.362;2022-09-06T06:01:45;16.23;;;14.17;;
6671;SDS011;3372;48.690;12.362;2022-09-06T06:04:17;16.97;;;15.20;;
6671;SDS011;3372;48.690;12.362;2022-09-06T06:06:44;16.97;;;15.20;;
6671;SDS011;3372;48.690;12.362;2022-09-06T06:09:11;16.80;;;15.03;;
6671;SDS011;3372;48.690;12.362;2022-09-06T06:11:37;17.20;;;15.40;;
6671;SDS011;3372;48.690;12.362;2022-09-06T06:14:03;19.70;;;15.90;;
6671;SDS011;3372;48.690;12.362;2022-09-06T06:16:29;18.00;;;16.07;;
6671;SDS011;3372;48.690;12.362;2022-09-06T06:18:55;23.43;;;16.00;;
6671;SDS011;3372;48.690;12.362;2022-09-06T06:21:29;18.10;;;16.30;;
6671;SDS011;3372;48.690;12.362;2022-09-06T06:23:57;18.77;;;16.50;;
6671;SDS011;3372;48.690;12.362;2022-09-06T06:26:24;17.37;;;15.60;;
6671;SDS011;3372;48.690;12.362;2022-09-06T06:28:50;17.50;;;15.70;;
6671;SDS011;3372;48.690;12.362;2022-09-06T06:31:17;16.57;;;14.87;;
6671;SDS011;3372;48.690;12.362;2022-09-06T06:33:46;16.37;;;14.77;;
6671;SDS011;3372;48.690;12.362;2022-09-06T06:38:38;16.93;;;15.30;;
6671;SDS011;3372;48.690;12.362;2022-09-06T06:41:05;15.57;;;13.97;;
6671;SDS011;3372;48.690;12.362;2022-09-06T06:43:33;15.07;;;13.57;;
6671;SDS011;3372;48.690;12.362;2022-09-06T06:46:24;14.50;;;13.10;;
6671;SDS011;3372;48.690;12.362;2022-09-06T06:48:48;16.30;;;14.30;;
6671;SDS011;3372;48.690;12.362;2022-09-06T06:51:15;14.00;;;12.60;;
6671;SDS011;3372;48.690;12.362;2022-09-06T06:53:43;14.80;;;13.27;;
6671;SDS011;3372;48.690;12.362;2022-09-06T06:56:18;14.63;;;13.23;;
6671;SDS011;3372;48.690;12.362;2022-09-06T06:58:51;14.60;;;13.20;;
6671;SDS011;3372;48.690;12.362;2022-09-06T07:01:18;16.20;;;14.50;;
6671;SDS011;3372;48.690;12.362;2022-09-06T07:03:45;16.27;;;14.33;;
6671;SDS011;3372;48.690;12.362;2022-09-06T07:06:11;13.80;;;12.60;;
6671;SDS011;3372;48.690;12.362;2022-09-06T07:08:38;13.90;;;12.60;;
6671;SDS011;3372;48.690;12.362;2022-09-06T07:11:04;16.13;;;13.80;;
6671;SDS011;3372;48.690;12.362;2022-09-06T07:13:31;14.10;;;12.73;;
6671;SDS011;3372;48.690;12.362;2022-09-06T07:18:32;16.50;;;14.63;;
6671;SDS011;3372;48.690;12.362;2022-09-06T07:20:58;15.13;;;13.53;;
6671;SDS011;3372;48.690;12.362;2022-09-06T07:23:23;15.27;;;13.67;;
6671;SDS011;3372;48.690;12.362;2022-09-06T07:25:49;16.33;;;14.83;;
6671;SDS011;3372;48.690;12.362;2022-09-06T07:28:15;15.33;;;13.73;;
6671;SDS011;3372;48.690;12.362;2022-09-06T07:30:40;15.80;;;14.30;;
6671;SDS011;3372;48.690;12.362;2022-09-06T07:33:06;16.07;;;14.33;;
6671;SDS011;3372;48.690;12.362;2022-09-06T07:35:32;17.57;;;15.67;;
6671;SDS011;3372;48.690;12.362;2022-09-06T07:37:59;18.20;;;15.27;;
6671;SDS011;3372;48.690;12.362;2022-09-06T07:40:26;16.87;;;15.30;;
6671;SDS011;3372;48.690;12.362;2022-09-06T07:42:57;14.40;;;13.00;;
6671;SDS011;3372;48.690;12.362;2022-09-06T07:45:23;16.70;;;14.63;;
6671;SDS011;3372;48.690;12.362;2022-09-06T07:47:53;16.87;;;15.27;;
6671;SDS011;3372;48.690;12.362;2022-09-06T07:50:22;20.37;;;14.97;;
6671;SDS011;3372;48.690;12.362;2022-09-06T07:52:48;17.43;;;15.80;;
6671;SDS011;3372;48.690;12.362;2022-09-06T07:55:14;17.93;;;16.00;;
6671;SDS011;3372;48.690;12.362;2022-09-06T07:57:40;16.53;;;14.93;;
6671;SDS011;3372;48.690;12.362;2022-09-06T08:00:06;15.67;;;14.17;;
6671;SDS011;3372;48.690;12.362;2022-09-06T08:02:32;14.37;;;12.87;;
6671;SDS011;3372;48.690;12.362;2022-09-06T08:04:58;15.23;;;13.43;;
6671;SDS011;3372;48.690;12.362;2022-09-06T08:07:23;15.70;;;14.13;;
6671;SDS011;3372;48.690;12.362;2022-09-06T08:09:49;15.60;;;14.00;;
6671;SDS011;3372;48.690;12.362;2022-09-06T08:12:15;15.00;;;13.60;;
6671;SDS011;3372;48.690;12.362;2022-09-06T08:14:42;16.07;;;14.57;;
6671;SDS011;3372;48.690;12.362;2022-09-06T08:17:07;14.90;;;13.40;;
6671;SDS011;3372;48.690;12.362;2022-09-06T08:19:33;15.80;;;14.27;;
6671;SDS011;3372;48.690;12.362;2022-09-06T08:21:58;14.27;;;12.90;;
6671;SDS011;3372;48.690;12.362;2022-09-06T08:24:24;14.53;;;13.03;;
6671;SDS011;3372;48.690;12.362;2022-09-06T08:26:49;14.37;;;12.67;;
6671;SDS011;3372;48.690;12.362;2022-09-06T08:29:15;14.17;;;12.80;;
6671;SDS011;3372;48.690;12.362;2022-09-06T08:31:42;14.60;;;13.23;;
6671;SDS011;3372;48.690;12.362;2022-09-06T08:34:08;14.90;;;13.40;;
6671;SDS011;3372;48.690;12.362;2022-09-06T08:36:36;14.77;;;13.27;;
6671;SDS011;3372;48.690;12.362;2022-09-06T08:39:03;15.93;;;14.30;;
6671;SDS011;3372;48.690;12.362;2022-09-06T08:44:21;15.27;;;13.77;;
6671;SDS011;3372;48.690;12.362;2022-09-06T08:47:01;16.70;;;13.67;;
6671;SDS011;3372;48.690;12.362;2022-09-06T08:49:36;15.20;;;13.13;;
6671;SDS011;3372;48.690;12.362;2022-09-06T08:52:12;12.87;;;11.67;;
6671;SDS011;3372;48.690;12.362;2022-09-06T09:00:08;14.27;;;12.90;;
6671;SDS011;3372;48.690;12.362;2022-09-06T09:02:41;13.27;;;12.07;;
6671;SDS011;3372;48.690;12.362;2022-09-06T09:05:17;12.13;;;10.93;;
6671;SDS011;3372;48.690;12.362;2022-09-06T09:08:10;13.03;;;11.30;;
6671;SDS011;3372;48.690;12.362;2022-09-06T09:10:49;13.20;;;11.90;;
6671;SDS011;3372;48.690;12.362;2022-09-06T09:16:23;10.70;;;9.70;;
6671;SDS011;3372;48.690;12.362;2022-09-06T09:18:59;11.93;;;10.73;;
6671;SDS011;3372;48.690;12.362;2022-09-06T09:21:27;11.53;;;10.43;;
6671;SDS011;3372;48.690;12.362;2022-09-06T09:23:57;11.73;;;10.50;;
6671;SDS011;3372;48.690;12.362;2022-09-06T09:26:29;12.07;;;9.23;;
6671;SDS011;3372;48.690;12.362;2022-09-06T09:31:52;9.77;;;8.40;;
6671;SDS011;3372;48.690;12.362;2022-09-06T09:34:32;8.07;;;7.20;;
6671;SDS011;3372;48.690;12.362;2022-09-06T09:37:35;11.70;;;8.90;;
6671;SDS011;3372;48.690;12.362;2022-09-06T09:39:55;9.70;;;8.80;;
6671;SDS011;3372;48.690;12.362;2022-09-06T09:42:28;9.27;;;8.37;;
6671;SDS011;3372;48.690;12.362;2022-09-06T09:44:57;9.20;;;8.33;;
6671;SDS011;3372;48.690;12.362;2022-09-06T09:47:25;9.20;;;8.30;;
6671;SDS011;3372;48.690;12.362;2022-09-06T09:49:53;8.73;;;7.83;;
6671;SDS011;3372;48.690;12.362;2022-09-06T09:52:41;8.73;;;7.77;;
6671;SDS011;3372;48.690;12.362;2022-09-06T09:55:08;5.80;;;5.20;;
6671;SDS011;3372;48.690;12.362;2022-09-06T09:57:45;5.57;;;5.07;;
6671;SDS011;3372;48.690;12.362;2022-09-06T10:00:12;5.73;;;4.93;;
6671;SDS011;3372;48.690;12.362;2022-09-06T10:02:41;9.03;;;5.20;;
6671;SDS011;3372;48.690;12.362;2022-09-06T10:05:08;5.93;;;5.00;;
6671;SDS011;3372;48.690;12.362;2022-09-06T10:07:45;6.60;;;4.50;;
6671;SDS011;3372;48.690;12.362;2022-09-06T10:10:20;5.80;;;5.20;;
6671;SDS011;3372;48.690;12.362;2022-09-06T10:12:47;8.30;;;5.33;;
6671;SDS011;3372;48.690;12.362;2022-09-06T10:15:33;8.50;;;5.13;;
6671;SDS011;3372;48.690;12.362;2022-09-06T10:18:03;8.47;;;5.57;;
6671;SDS011;3372;48.690;12.362;2022-09-06T10:20:31;5.73;;;5.23;;
6671;SDS011;3372;48.690;12.362;2022-09-06T10:29:05;7.50;;;5.43;;
6671;SDS011;3372;48.690;12.362;2022-09-06T10:31:56;4.90;;;4.40;;
6671;SDS011;3372;48.690;12.362;2022-09-06T10:40:25;6.20;;;5.53;;
6671;SDS011;3372;48.690;12.362;2022-09-06T10:42:55;5.37;;;4.87;;
6671;SDS011;3372;48.690;12.362;2022-09-06T10:45:27;5.63;;;5.10;;
6671;SDS011;3372;48.690;12.362;2022-09-06T10:50:48;6.13;;;5.50;;
6671;SDS011;3372;48.690;12.362;2022-09-06T10:55:47;6.20;;;5.60;;
6671;SDS011;3372;48.690;12.362;2022-09-06T10:58:24;7.43;;;6.10;;
6671;SDS011;3372;48.690;12.362;2022-09-06T11:00:53;6.73;;;5.30;;
6671;SDS011;3372;48.690;12.362;2022-09-06T11:05:57;6.80;;;6.10;;
6671;SDS011;3372;48.690;12.362;2022-09-06T11:11:38;5.63;;;5.07;;
6671;SDS011;3372;48.690;12.362;2022-09-06T11:14:12;7.57;;;5.70;;
6671;SDS011;3372;48.690;12.362;2022-09-06T11:16:48;8.10;;;6.20;;
6671;SDS011;3372;48.690;12.362;2022-09-06T11:19:23;7.70;;;5.87;;
6671;SDS011;3372;48.690;12.362;2022-09-06T11:25:01;6.47;;;5.80;;
6671;SDS011;3372;48.690;12.362;2022-09-06T11:27:52;7.33;;;6.60;;
6671;SDS011;3372;48.690;12.362;2022-09-06T11:30:21;6.27;;;5.63;;
6671;SDS011;3372;48.690;12.362;2022-09-06T11:32:49;7.90;;;5.30;;
6671;SDS011;3372;48.690;12.362;2022-09-06T11:35:26;6.00;;;5.40;;
6671;SDS011;3372;48.690;12.362;2022-09-06T11:38:00;6.87;;;5.97;;
6671;SDS011;3372;48.690;12.362;2022-09-06T11:40:38;6.33;;;5.37;;
6671;SDS011;3372;48.690;12.362;2022-09-06T11:46:08;7.00;;;5.27;;
6671;SDS011;3372;48.690;12.362;2022-09-06T11:51:50;6.47;;;5.23;;
6671;SDS011;3372;48.690;12.362;2022-09-06T11:56:47;8.83;;;6.00;;
6671;SDS011;3372;48.690;12.362;2022-09-06T11:59:27;6.43;;;5.80;;
6671;SDS011;3372;48.690;12.362;2022-09-06T12:04:33;6.00;;;5.47;;
6671;SDS011;3372;48.690;12.362;2022-09-06T12:07:35;6.63;;;5.13;;
6671;SDS011;3372;48.690;12.362;2022-09-06T12:12:53;5.33;;;4.77;;
6671;SDS011;3372;48.690;12.362;2022-09-06T12:15:28;6.93;;;5.00;;
6671;SDS011;3372;48.690;12.362;2022-09-06T12:18:09;6.20;;;5.10;;
6671;SDS011;3372;48.690;12.362;2022-09-06T12:21:32;10.67;;;5.00;;
6671;SDS011;3372;48.690;12.362;2022-09-06T12:23:59;6.43;;;4.50;;
6671;SDS011;3372;48.690;12.362;2022-09-06T12:29:16;5.13;;;4.30;;
6671;SDS011;3372;48.690;12.362;2022-09-06T12:31:50;5.00;;;4.23;;
6671;SDS011;3372;48.690;12.362;2022-09-06T12:34:20;5.83;;;4.90;;
6671;SDS011;3372;48.690;12.362;2022-09-06T12:37:09;6.00;;;4.90;;
6671;SDS011;3372;48.690;12.362;2022-09-06T12:39:35;6.83;;;4.20;;
6671;SDS011;3372;48.690;12.362;2022-09-06T12:42:01;6.30;;;4.57;;
6671;SDS011;3372;48.690;12.362;2022-09-06T12:44:46;4.93;;;4.43;;
6671;SDS011;3372;48.690;12.362;2022-09-06T12:52:52;5.07;;;4.23;;
6671;SDS011;3372;48.690;12.362;2022-09-06T12:58:02;4.80;;;4.30;;
6671;SDS011;3372;48.690;12.362;2022-09-06T13:00:30;5.23;;;4.07;;
6671;SDS011;3372;48.690;12.362;2022-09-06T13:05:54;4.33;;;3.70;;
6671;SDS011;3372;48.690;12.362;2022-09-06T13:08:24;4.00;;;3.60;;
6671;SDS011;3372;48.690;12.362;2022-09-06T13:10:57;5.73;;;4.40;;
6671;SDS011;3372;48.690;12.362;2022-09-06T13:13:23;5.07;;;3.70;;
6671;SDS011;3372;48.690;12.362;2022-09-06T13:15:50;3.90;;;3.50;;
6671;SDS011;3372;48.690;12.362;2022-09-06T13:18:18;5.50;;;3.70;;
6671;SDS011;3372;48.690;12.362;2022-09-06T13:20:58;5.47;;;3.90;;
6671;SDS011;3372;48.690;12.362;2022-09-06T13:23:25;5.50;;;4.03;;
6671;SDS011;3372;48.690;12.362;2022-09-06T13:25:52;5.00;;;3.93;;
6671;SDS011;3372;48.690;12.362;2022-09-06T13:28:26;4.77;;;3.63;;
6671;SDS011;3372;48.690;12.362;2022-09-06T13:31:04;6.70;;;3.70;;
6671;SDS011;3372;48.690;12.362;2022-09-06T13:33:30;4.10;;;3.40;;
6671;SDS011;3372;48.690;12.362;2022-09-06T13:41:03;4.83;;;3.50;;
6671;SDS011;3372;48.690;12.362;2022-09-06T13:43:38;4.50;;;3.20;;
6671;SDS011;3372;48.690;12.362;2022-09-06T13:46:07;9.73;;;3.53;;
6671;SDS011;3372;48.690;12.362;2022-09-06T13:48:35;6.53;;;3.20;;
6671;SDS011;3372;48.690;12.362;2022-09-06T13:51:04;4.53;;;3.27;;
6671;SDS011;3372;48.690;12.362;2022-09-06T13:53:31;4.10;;;2.83;;
6671;SDS011;3372;48.690;12.362;2022-09-06T13:55:57;4.40;;;3.17;;
6671;SDS011;3372;48.690;12.362;2022-09-06T13:58:23;4.37;;;3.00;;
6671;SDS011;3372;48.690;12.362;2022-09-06T14:00:49;6.40;;;3.03;;
6671;SDS011;3372;48.690;12.362;2022-09-06T14:03:21;4.60;;;3.33;;
6671;SDS011;3372;48.690;12.362;2022-09-06T14:05:49;5.90;;;3.10;;
6671;SDS011;3372;48.690;12.362;2022-09-06T14:08:15;7.30;;;3.30;;
6671;SDS011;3372;48.690;12.362;2022-09-06T14:10:41;5.10;;;3.17;;
6671;SDS011;3372;48.690;12.362;2022-09-06T14:13:07;5.83;;;3.47;;
6671;SDS011;3372;48.690;12.362;2022-09-06T14:15:33;4.33;;;3.10;;
6671;SDS011;3372;48.690;12.362;2022-09-06T14:17:58;4.00;;;2.63;;
6671;SDS011;3372;48.690;12.362;2022-09-06T14:20:24;6.93;;;3.40;;
6671;SDS011;3372;48.690;12.362;2022-09-06T14:22:49;5.50;;;2.87;;
6671;SDS011;3372;48.690;12.362;2022-09-06T14:25:15;6.53;;;2.90;;
6671;SDS011;3372;48.690;12.362;2022-09-06T14:27:41;4.90;;;3.27;;
6671;SDS011;3372;48.690;12.362;2022-09-06T14:30:06;5.53;;;3.00;;
6671;SDS011;3372;48.690;12.362;2022-09-06T14:32:33;5.50;;;3.57;;
6671;SDS011;3372;48.690;12.362;2022-09-06T14:34:58;7.10;;;3.03;;
6671;SDS011;3372;48.690;12.362;2022-09-06T14:37:25;4.40;;;3.00;;
6671;SDS011;3372;48.690;12.362;2022-09-06T14:39:51;4.33;;;3.20;;
6671;SDS011;3372;48.690;12.362;2022-09-06T14:42:17;7.60;;;3.07;;
6671;SDS011;3372;48.690;12.362;2022-09-06T14:44:43;5.17;;;3.17;;
6671;SDS011;3372;48.690;12.362;2022-09-06T14:47:09;4.43;;;2.97;;
6671;SDS011;3372;48.690;12.362;2022-09-06T14:49:35;5.17;;;3.00;;
6671;SDS011;3372;48.690;12.362;2022-09-06T14:52:01;7.67;;;2.87;;
6671;SDS011;3372;48.690;12.362;2022-09-06T14:54:26;7.87;;;3.57;;
6671;SDS011;3372;48.690;12.362;2022-09-06T14:56:52;3.70;;;2.93;;
6671;SDS011;3372;48.690;12.362;2022-09-06T14:59:18;5.93;;;3.07;;
6671;SDS011;3372;48.690;12.362;2022-09-06T15:01:43;5.97;;;3.13;;
6671;SDS011;3372;48.690;12.362;2022-09-06T15:04:10;6.43;;;2.93;;
6671;SDS011;3372;48.690;12.362;2022-09-06T15:06:36;5.03;;;3.07;;
6671;SDS011;3372;48.690;12.362;2022-09-06T15:09:04;5.03;;;2.70;;
6671;SDS011;3372;48.690;12.362;2022-09-06T15:14:02;5.83;;;3.20;;
6671;SDS011;3372;48.690;12.362;2022-09-06T15:16:49;4.60;;;2.80;;
6671;SDS011;3372;48.690;12.362;2022-09-06T15:19:16;4.70;;;2.73;;
6671;SDS011;3372;48.690;12.362;2022-09-06T15:21:43;6.43;;;2.93;;
6671;SDS011;3372;48.690;12.362;2022-09-06T15:24:09;9.23;;;3.10;;
6671;SDS011;3372;48.690;12.362;2022-09-06T15:26:35;5.23;;;3.43;;
6671;SDS011;3372;48.690;12.362;2022-09-06T15:29:01;5.23;;;3.03;;
6671;SDS011;3372;48.690;12.362;2022-09-06T15:31:26;5.13;;;3.10;;
6671;SDS011;3372;48.690;12.362;2022-09-06T15:33:52;5.43;;;2.83;;
6671;SDS011;3372;48.690;12.362;2022-09-06T15:36:18;5.50;;;3.20;;
6671;SDS011;3372;48.690;12.362;2022-09-06T15:38:44;6.37;;;3.10;;
6671;SDS011;3372;48.690;12.362;2022-09-06T15:41:22;14.07;;;3.60;;
6671;SDS011;3372;48.690;12.362;2022-09-06T15:43:49;5.30;;;2.60;;
6671;SDS011;3372;48.690;12.362;2022-09-06T15:46:18;8.10;;;3.10;;
6671;SDS011;3372;48.690;12.362;2022-09-06T15:49:05;5.07;;;2.87;;
6671;SDS011;3372;48.690;12.362;2022-09-06T15:51:32;4.00;;;2.80;;
6671;SDS011;3372;48.690;12.362;2022-09-06T15:53:59;5.30;;;2.83;;
6671;SDS011;3372;48.690;12.362;2022-09-06T15:56:25;4.40;;;2.90;;
6671;SDS011;3372;48.690;12.362;2022-09-06T15:58:50;7.90;;;3.00;;
6671;SDS011;3372;48.690;12.362;2022-09-06T16:01:20;3.87;;;2.93;;
6671;SDS011;3372;48.690;12.362;2022-09-06T16:03:48;5.03;;;3.00;;
6671;SDS011;3372;48.690;12.362;2022-09-06T16:06:20;4.20;;;3.03;;
6671;SDS011;3372;48.690;12.362;2022-09-06T16:08:48;4.60;;;2.90;;
6671;SDS011;3372;48.690;12.362;2022-09-06T16:11:15;4.80;;;2.70;;
6671;SDS011;3372;48.690;12.362;2022-09-06T16:13:42;6.03;;;3.40;;
6671;SDS011;3372;48.690;12.362;2022-09-06T16:16:09;5.47;;;2.97;;
6671;SDS011;3372;48.690;12.362;2022-09-06T16:18:37;6.90;;;3.03;;
6671;SDS011;3372;48.690;12.362;2022-09-06T16:21:07;7.13;;;3.57;;
6671;SDS011;3372;48.690;12.362;2022-09-06T16:23:36;6.00;;;3.03;;
6671;SDS011;3372;48.690;12.362;2022-09-06T16:26:03;4.57;;;2.70;;
6671;SDS011;3372;48.690;12.362;2022-09-06T16:28:29;5.63;;;3.10;;
6671;SDS011;3372;48.690;12.362;2022-09-06T16:31:00;3.73;;;2.93;;
6671;SDS011;3372;48.690;12.362;2022-09-06T16:33:30;6.57;;;3.40;;
6671;SDS011;3372;48.690;12.362;2022-09-06T16:35:58;5.20;;;2.77;;
6671;SDS011;3372;48.690;12.362;2022-09-06T16:38:24;4.97;;;3.63;;
6671;SDS011;3372;48.690;12.362;2022-09-06T16:40:52;7.80;;;3.47;;
6671;SDS011;3372;48.690;12.362;2022-09-06T16:43:17;3.80;;;2.80;;
6671;SDS011;3372;48.690;12.362;2022-09-06T16:45:53;4.53;;;3.20;;
6671;SDS011;3372;48.690;12.362;2022-09-06T16:48:20;4.33;;;3.03;;